sensor_id;sensor_type;location;lat;lon;timestamp;P1;durP1;ratioP1;P2;durP2;ratioP2
32172;SDS011;18679;45.190;5.722;2022-09-27T00:01:35;4.57;;;1.58;;
32172;SDS011;18679;45.190;5.722;2022-09-27T00:04:46;4.55;;;1.38;;
32172;SDS011;18679;45.190;5.722;2022-09-27T00:07:53;4.22;;;1.58;;
32172;SDS011;18679;45.190;5.722;2022-09-27T00:11:00;2.17;;;1.40;;
32172;SDS011;18679;45.190;5.722;2022-09-27T00:14:11;3.15;;;1.10;;
32172;SDS011;18679;45.190;5.722;2022-09-27T00:17:17;4.53;;;1.42;;
32172;SDS011;18679;45.190;5.722;2022-09-27T00:20:23;2.65;;;1.38;;
32172;SDS011;18679;45.190;5.722;2022-09-27T00:23:28;2.95;;;1.30;;
32172;SDS011;18679;45.190;5.722;2022-09-27T00:26:30;2.40;;;1.30;;
32172;SDS011;18679;45.190;5.722;2022-09-27T00:29:31;3.33;;;1.63;;
32172;SDS011;18679;45.190;5.722;2022-09-27T00:32:34;2.40;;;1.25;;
32172;SDS011;18679;45.190;5.722;2022-09-27T00:35:37;3.08;;;1.45;;
32172;SDS011;18679;45.190;5.722;2022-09-27T00:38:40;1.95;;;1.30;;
32172;SDS011;18679;45.190;5.722;2022-09-27T00:41:42;2.92;;;1.40;;
32172;SDS011;18679;45.190;5.722;2022-09-27T00:44:59;6.00;;;1.50;;
32172;SDS011;18679;45.190;5.722;2022-09-27T00:48:09;2.65;;;1.40;;
32172;SDS011;18679;45.190;5.722;2022-09-27T00:51:16;2.03;;;1.23;;
32172;SDS011;18679;45.190;5.722;2022-09-27T00:54:20;3.30;;;1.15;;
32172;SDS011;18679;45.190;5.722;2022-09-27T00:57:25;5.18;;;1.42;;
32172;SDS011;18679;45.190;5.722;2022-09-27T01:00:29;1.25;;;1.08;;
32172;SDS011;18679;45.190;5.722;2022-09-27T01:03:38;1.83;;;1.15;;
32172;SDS011;18679;45.190;5.722;2022-09-27T01:07:01;6.73;;;1.43;;
32172;SDS011;18679;45.190;5.722;2022-09-27T01:10:04;2.35;;;1.23;;
32172;SDS011;18679;45.190;5.722;2022-09-27T01:13:26;6.68;;;1.45;;
32172;SDS011;18679;45.190;5.722;2022-09-27T01:16:56;2.17;;;1.60;;
32172;SDS011;18679;45.190;5.722;2022-09-27T01:43:36;6.15;;;2.40;;
32172;SDS011;18679;45.190;5.722;2022-09-27T01:46:46;3.63;;;2.00;;
32172;SDS011;18679;45.190;5.722;2022-09-27T01:50:39;6.13;;;1.90;;
32172;SDS011;18679;45.190;5.722;2022-09-27T01:53:49;4.43;;;2.05;;
32172;SDS011;18679;45.190;5.722;2022-09-27T01:57:28;3.47;;;2.20;;
32172;SDS011;18679;45.190;5.722;2022-09-27T02:00:48;4.53;;;2.53;;
32172;SDS011;18679;45.190;5.722;2022-09-27T02:04:00;3.65;;;1.55;;
32172;SDS011;18679;45.190;5.722;2022-09-27T02:07:41;2.00;;;1.33;;
32172;SDS011;18679;45.190;5.722;2022-09-27T02:10:53;1.85;;;1.35;;
32172;SDS011;18679;45.190;5.722;2022-09-27T02:14:18;1.70;;;1.00;;
32172;SDS011;18679;45.190;5.722;2022-09-27T02:17:43;1.95;;;1.20;;
32172;SDS011;18679;45.190;5.722;2022-09-27T02:21:00;2.65;;;1.02;;
32172;SDS011;18679;45.190;5.722;2022-09-27T02:24:11;2.38;;;1.23;;
32172;SDS011;18679;45.190;5.722;2022-09-27T02:27:24;2.42;;;1.60;;
32172;SDS011;18679;45.190;5.722;2022-09-27T02:30:48;2.20;;;1.52;;
32172;SDS011;18679;45.190;5.722;2022-09-27T02:34:00;3.22;;;1.40;;
32172;SDS011;18679;45.190;5.722;2022-09-27T02:37:06;4.93;;;1.67;;
32172;SDS011;18679;45.190;5.722;2022-09-27T02:40:09;3.15;;;1.75;;
32172;SDS011;18679;45.190;5.722;2022-09-27T02:43:13;3.83;;;1.80;;
32172;SDS011;18679;45.190;5.722;2022-09-27T02:53:34;5.90;;;1.85;;
32172;SDS011;18679;45.190;5.722;2022-09-27T02:57:27;2.53;;;1.33;;
32172;SDS011;18679;45.190;5.722;2022-09-27T03:04:22;2.17;;;1.30;;
32172;SDS011;18679;45.190;5.722;2022-09-27T03:07:36;2.28;;;1.40;;
32172;SDS011;18679;45.190;5.722;2022-09-27T03:10:39;0.85;;;0.70;;
32172;SDS011;18679;45.190;5.722;2022-09-27T03:13:43;1.38;;;1.00;;
32172;SDS011;18679;45.190;5.722;2022-09-27T03:16:50;3.67;;;1.08;;
32172;SDS011;18679;45.190;5.722;2022-09-27T03:20:18;1.50;;;1.20;;
32172;SDS011;18679;45.190;5.722;2022-09-27T03:23:28;1.73;;;1.00;;
32172;SDS011;18679;45.190;5.722;2022-09-27T03:26:30;1.13;;;0.70;;
32172;SDS011;18679;45.190;5.722;2022-09-27T03:29:31;0.60;;;0.60;;
32172;SDS011;18679;45.190;5.722;2022-09-27T03:32:43;1.48;;;1.05;;
32172;SDS011;18679;45.190;5.722;2022-09-27T03:36:14;2.60;;;0.77;;
32172;SDS011;18679;45.190;5.722;2022-09-27T03:39:23;3.03;;;1.30;;
32172;SDS011;18679;45.190;5.722;2022-09-27T03:42:34;2.25;;;0.80;;
32172;SDS011;18679;45.190;5.722;2022-09-27T03:45:36;1.30;;;0.85;;
32172;SDS011;18679;45.190;5.722;2022-09-27T03:48:42;9.15;;;0.88;;
32172;SDS011;18679;45.190;5.722;2022-09-27T03:51:55;6.65;;;1.00;;
32172;SDS011;18679;45.190;5.722;2022-09-27T03:55:06;4.10;;;0.98;;
32172;SDS011;18679;45.190;5.722;2022-09-27T03:58:15;6.00;;;1.20;;
32172;SDS011;18679;45.190;5.722;2022-09-27T04:01:23;4.85;;;0.90;;
32172;SDS011;18679;45.190;5.722;2022-09-27T04:04:46;4.85;;;0.95;;
32172;SDS011;18679;45.190;5.722;2022-09-27T04:07:52;3.70;;;0.73;;
32172;SDS011;18679;45.190;5.722;2022-09-27T04:10:58;1.50;;;0.60;;
32172;SDS011;18679;45.190;5.722;2022-09-27T04:14:05;7.97;;;1.42;;
32172;SDS011;18679;45.190;5.722;2022-09-27T04:17:18;3.50;;;1.10;;
32172;SDS011;18679;45.190;5.722;2022-09-27T04:20:46;1.92;;;0.98;;
32172;SDS011;18679;45.190;5.722;2022-09-27T04:23:48;6.05;;;1.23;;
32172;SDS011;18679;45.190;5.722;2022-09-27T04:26:55;2.53;;;1.10;;
32172;SDS011;18679;45.190;5.722;2022-09-27T04:30:00;2.15;;;1.02;;
32172;SDS011;18679;45.190;5.722;2022-09-27T04:33:30;2.88;;;0.98;;
32172;SDS011;18679;45.190;5.722;2022-09-27T04:36:54;1.38;;;0.90;;
32172;SDS011;18679;45.190;5.722;2022-09-27T04:40:03;8.05;;;1.30;;
32172;SDS011;18679;45.190;5.722;2022-09-27T04:43:07;2.47;;;1.15;;
32172;SDS011;18679;45.190;5.722;2022-09-27T04:46:09;1.35;;;0.98;;
32172;SDS011;18679;45.190;5.722;2022-09-27T04:49:11;6.07;;;1.20;;
32172;SDS011;18679;45.190;5.722;2022-09-27T04:52:12;1.13;;;0.90;;
32172;SDS011;18679;45.190;5.722;2022-09-27T04:55:15;2.42;;;0.88;;
32172;SDS011;18679;45.190;5.722;2022-09-27T04:58:19;2.05;;;1.08;;
32172;SDS011;18679;45.190;5.722;2022-09-27T05:01:23;4.40;;;1.00;;
32172;SDS011;18679;45.190;5.722;2022-09-27T05:08:10;2.03;;;1.00;;
32172;SDS011;18679;45.190;5.722;2022-09-27T05:11:31;5.43;;;1.13;;
32172;SDS011;18679;45.190;5.722;2022-09-27T05:14:53;4.95;;;1.30;;
32172;SDS011;18679;45.190;5.722;2022-09-27T05:18:17;2.33;;;1.48;;
32172;SDS011;18679;45.190;5.722;2022-09-27T05:21:45;2.58;;;1.30;;
32172;SDS011;18679;45.190;5.722;2022-09-27T05:24:52;3.15;;;1.27;;
32172;SDS011;18679;45.190;5.722;2022-09-27T05:27:58;6.72;;;1.60;;
32172;SDS011;18679;45.190;5.722;2022-09-27T05:31:03;1.38;;;1.13;;
32172;SDS011;18679;45.190;5.722;2022-09-27T05:34:08;4.10;;;1.50;;
32172;SDS011;18679;45.190;5.722;2022-09-27T05:37:17;5.90;;;1.67;;
32172;SDS011;18679;45.190;5.722;2022-09-27T05:40:21;4.55;;;1.95;;
32172;SDS011;18679;45.190;5.722;2022-09-27T05:46:35;2.38;;;1.67;;
32172;SDS011;18679;45.190;5.722;2022-09-27T05:49:39;4.03;;;2.05;;
32172;SDS011;18679;45.190;5.722;2022-09-27T05:52:44;3.35;;;1.60;;
32172;SDS011;18679;45.190;5.722;2022-09-27T05:55:47;7.03;;;2.33;;
32172;SDS011;18679;45.190;5.722;2022-09-27T05:58:52;4.40;;;2.17;;
32172;SDS011;18679;45.190;5.722;2022-09-27T06:02:02;6.00;;;2.20;;
32172;SDS011;18679;45.190;5.722;2022-09-27T06:05:36;5.38;;;2.28;;
32172;SDS011;18679;45.190;5.722;2022-09-27T06:08:58;5.65;;;2.15;;
32172;SDS011;18679;45.190;5.722;2022-09-27T06:12:00;5.53;;;1.38;;
32172;SDS011;18679;45.190;5.722;2022-09-27T06:15:02;10.07;;;1.38;;
32172;SDS011;18679;45.190;5.722;2022-09-27T06:18:14;6.35;;;1.00;;
32172;SDS011;18679;45.190;5.722;2022-09-27T06:21:20;6.22;;;1.10;;
32172;SDS011;18679;45.190;5.722;2022-09-27T06:24:30;4.43;;;1.10;;
32172;SDS011;18679;45.190;5.722;2022-09-27T06:27:42;5.45;;;1.02;;
32172;SDS011;18679;45.190;5.722;2022-09-27T06:30:55;5.72;;;0.90;;
32172;SDS011;18679;45.190;5.722;2022-09-27T06:34:05;3.03;;;1.27;;
32172;SDS011;18679;45.190;5.722;2022-09-27T06:37:09;3.65;;;1.02;;
32172;SDS011;18679;45.190;5.722;2022-09-27T06:40:11;6.00;;;1.48;;
32172;SDS011;18679;45.190;5.722;2022-09-27T06:43:47;6.38;;;1.10;;
32172;SDS011;18679;45.190;5.722;2022-09-27T06:47:23;7.13;;;1.13;;
32172;SDS011;18679;45.190;5.722;2022-09-27T06:50:46;3.72;;;1.17;;
32172;SDS011;18679;45.190;5.722;2022-09-27T06:53:48;4.35;;;1.27;;
32172;SDS011;18679;45.190;5.722;2022-09-27T06:56:51;4.75;;;1.80;;
32172;SDS011;18679;45.190;5.722;2022-09-27T06:59:52;10.88;;;1.35;;
32172;SDS011;18679;45.190;5.722;2022-09-27T07:03:35;9.98;;;2.47;;
32172;SDS011;18679;45.190;5.722;2022-09-27T07:06:52;4.38;;;2.25;;
32172;SDS011;18679;45.190;5.722;2022-09-27T07:09:57;5.15;;;2.13;;
32172;SDS011;18679;45.190;5.722;2022-09-27T07:13:04;7.43;;;2.08;;
32172;SDS011;18679;45.190;5.722;2022-09-27T07:16:12;6.60;;;1.92;;
32172;SDS011;18679;45.190;5.722;2022-09-27T07:19:14;13.68;;;2.47;;
32172;SDS011;18679;45.190;5.722;2022-09-27T07:22:19;6.35;;;2.20;;
32172;SDS011;18679;45.190;5.722;2022-09-27T07:25:26;6.75;;;2.53;;
32172;SDS011;18679;45.190;5.722;2022-09-27T07:28:28;10.07;;;2.85;;
32172;SDS011;18679;45.190;5.722;2022-09-27T07:31:31;6.45;;;2.58;;
32172;SDS011;18679;45.190;5.722;2022-09-27T07:34:33;5.15;;;2.15;;
32172;SDS011;18679;45.190;5.722;2022-09-27T07:37:36;4.25;;;1.67;;
32172;SDS011;18679;45.190;5.722;2022-09-27T07:40:38;10.20;;;2.08;;
32172;SDS011;18679;45.190;5.722;2022-09-27T07:43:42;7.10;;;1.90;;
32172;SDS011;18679;45.190;5.722;2022-09-27T07:46:45;1.45;;;1.13;;
32172;SDS011;18679;45.190;5.722;2022-09-27T07:50:02;2.08;;;1.27;;
32172;SDS011;18679;45.190;5.722;2022-09-27T07:53:14;5.20;;;1.05;;
32172;SDS011;18679;45.190;5.722;2022-09-27T07:56:24;3.50;;;1.05;;
32172;SDS011;18679;45.190;5.722;2022-09-27T07:59:26;16.10;;;1.50;;
32172;SDS011;18679;45.190;5.722;2022-09-27T08:02:27;15.98;;;1.13;;
32172;SDS011;18679;45.190;5.722;2022-09-27T08:05:30;9.38;;;1.13;;
32172;SDS011;18679;45.190;5.722;2022-09-27T08:08:33;3.38;;;1.05;;
32172;SDS011;18679;45.190;5.722;2022-09-27T08:11:37;7.40;;;1.10;;
32172;SDS011;18679;45.190;5.722;2022-09-27T08:14:40;2.92;;;1.30;;
32172;SDS011;18679;45.190;5.722;2022-09-27T08:17:44;5.90;;;0.93;;
32172;SDS011;18679;45.190;5.722;2022-09-27T08:20:54;2.92;;;1.00;;
32172;SDS011;18679;45.190;5.722;2022-09-27T08:24:09;6.40;;;1.40;;
32172;SDS011;18679;45.190;5.722;2022-09-27T08:27:27;3.92;;;1.80;;
32172;SDS011;18679;45.190;5.722;2022-09-27T08:30:34;5.63;;;2.95;;
32172;SDS011;18679;45.190;5.722;2022-09-27T08:33:35;7.22;;;2.70;;
32172;SDS011;18679;45.190;5.722;2022-09-27T08:36:37;11.98;;;3.22;;
32172;SDS011;18679;45.190;5.722;2022-09-27T08:39:40;9.23;;;2.70;;
32172;SDS011;18679;45.190;5.722;2022-09-27T08:42:46;9.23;;;1.90;;
32172;SDS011;18679;45.190;5.722;2022-09-27T08:49:10;12.85;;;1.95;;
32172;SDS011;18679;45.190;5.722;2022-09-27T08:52:37;6.95;;;1.00;;
32172;SDS011;18679;45.190;5.722;2022-09-27T08:55:47;11.75;;;1.42;;
32172;SDS011;18679;45.190;5.722;2022-09-27T08:58:59;5.57;;;1.25;;
32172;SDS011;18679;45.190;5.722;2022-09-27T09:02:24;12.55;;;1.77;;
32172;SDS011;18679;45.190;5.722;2022-09-27T09:05:28;4.60;;;2.03;;
32172;SDS011;18679;45.190;5.722;2022-09-27T09:19:25;5.47;;;1.42;;
32172;SDS011;18679;45.190;5.722;2022-09-27T09:36:11;2.58;;;0.88;;
32172;SDS011;18679;45.190;5.722;2022-09-27T09:42:25;11.15;;;1.20;;
32172;SDS011;18679;45.190;5.722;2022-09-27T09:45:46;2.80;;;0.75;;
32172;SDS011;18679;45.190;5.722;2022-09-27T09:49:04;6.40;;;0.98;;
32172;SDS011;18679;45.190;5.722;2022-09-27T09:52:22;6.85;;;1.02;;
32172;SDS011;18679;45.190;5.722;2022-09-27T09:55:45;4.20;;;1.25;;
32172;SDS011;18679;45.190;5.722;2022-09-27T09:58:58;4.00;;;1.42;;
32172;SDS011;18679;45.190;5.722;2022-09-27T10:05:25;11.38;;;1.23;;
32172;SDS011;18679;45.190;5.722;2022-09-27T10:08:37;1.83;;;1.20;;
32172;SDS011;18679;45.190;5.722;2022-09-27T10:11:59;2.33;;;0.85;;
32172;SDS011;18679;45.190;5.722;2022-09-27T10:15:04;6.15;;;1.25;;
32172;SDS011;18679;45.190;5.722;2022-09-27T10:18:08;2.50;;;1.13;;
32172;SDS011;18679;45.190;5.722;2022-09-27T10:21:21;4.20;;;1.80;;
32172;SDS011;18679;45.190;5.722;2022-09-27T10:24:29;8.15;;;1.10;;
32172;SDS011;18679;45.190;5.722;2022-09-27T10:28:33;6.95;;;1.13;;
32172;SDS011;18679;45.190;5.722;2022-09-27T10:31:43;6.07;;;1.10;;
32172;SDS011;18679;45.190;5.722;2022-09-27T10:34:54;5.78;;;1.08;;
32172;SDS011;18679;45.190;5.722;2022-09-27T10:41:35;7.22;;;0.90;;
32172;SDS011;18679;45.190;5.722;2022-09-27T10:44:46;10.48;;;1.50;;
32172;SDS011;18679;45.190;5.722;2022-09-27T10:48:03;7.13;;;1.40;;
32172;SDS011;18679;45.190;5.722;2022-09-27T10:51:29;8.57;;;1.30;;
32172;SDS011;18679;45.190;5.722;2022-09-27T10:54:39;9.73;;;1.08;;
32172;SDS011;18679;45.190;5.722;2022-09-27T10:57:56;4.53;;;1.38;;
32172;SDS011;18679;45.190;5.722;2022-09-27T11:01:03;3.42;;;1.13;;
32172;SDS011;18679;45.190;5.722;2022-09-27T11:04:33;3.70;;;1.30;;
32172;SDS011;18679;45.190;5.722;2022-09-27T11:07:51;4.00;;;1.15;;
32172;SDS011;18679;45.190;5.722;2022-09-27T11:11:27;11.48;;;1.13;;
32172;SDS011;18679;45.190;5.722;2022-09-27T11:14:33;2.88;;;0.90;;
32172;SDS011;18679;45.190;5.722;2022-09-27T11:20:53;4.10;;;1.35;;
32172;SDS011;18679;45.190;5.722;2022-09-27T11:27:41;2.03;;;0.68;;
32172;SDS011;18679;45.190;5.722;2022-09-27T11:38:08;5.97;;;1.30;;
32172;SDS011;18679;45.190;5.722;2022-09-27T11:41:31;2.17;;;0.77;;
32172;SDS011;18679;45.190;5.722;2022-09-27T11:51:27;2.35;;;0.88;;
32172;SDS011;18679;45.190;5.722;2022-09-27T11:54:54;2.80;;;0.93;;
32172;SDS011;18679;45.190;5.722;2022-09-27T11:58:34;1.77;;;1.17;;
32172;SDS011;18679;45.190;5.722;2022-09-27T12:12:05;4.80;;;0.82;;
32172;SDS011;18679;45.190;5.722;2022-09-27T12:15:19;15.35;;;1.17;;
32172;SDS011;18679;45.190;5.722;2022-09-27T12:18:36;4.10;;;1.25;;
32172;SDS011;18679;45.190;5.722;2022-09-27T12:21:48;1.98;;;0.90;;
32172;SDS011;18679;45.190;5.722;2022-09-27T12:24:49;3.53;;;1.40;;
32172;SDS011;18679;45.190;5.722;2022-09-27T12:28:24;1.55;;;0.52;;
32172;SDS011;18679;45.190;5.722;2022-09-27T12:35:22;3.20;;;0.50;;
32172;SDS011;18679;45.190;5.722;2022-09-27T12:38:36;5.65;;;0.65;;
32172;SDS011;18679;45.190;5.722;2022-09-27T12:41:44;2.22;;;0.60;;
32172;SDS011;18679;45.190;5.722;2022-09-27T12:45:02;2.00;;;0.70;;
32172;SDS011;18679;45.190;5.722;2022-09-27T12:51:29;6.70;;;0.80;;
32172;SDS011;18679;45.190;5.722;2022-09-27T12:54:47;4.10;;;0.77;;
32172;SDS011;18679;45.190;5.722;2022-09-27T13:05:26;3.50;;;0.95;;
32172;SDS011;18679;45.190;5.722;2022-09-27T13:09:00;8.40;;;1.30;;
32172;SDS011;18679;45.190;5.722;2022-09-27T13:12:07;6.03;;;0.95;;
32172;SDS011;18679;45.190;5.722;2022-09-27T13:15:18;7.60;;;0.93;;
32172;SDS011;18679;45.190;5.722;2022-09-27T13:29:20;1.95;;;0.95;;
32172;SDS011;18679;45.190;5.722;2022-09-27T13:32:26;5.40;;;0.70;;
32172;SDS011;18679;45.190;5.722;2022-09-27T13:35:34;6.18;;;1.25;;
32172;SDS011;18679;45.190;5.722;2022-09-27T13:42:29;4.88;;;1.00;;
32172;SDS011;18679;45.190;5.722;2022-09-27T13:45:52;1.33;;;0.60;;
32172;SDS011;18679;45.190;5.722;2022-09-27T13:48:57;4.18;;;1.00;;
32172;SDS011;18679;45.190;5.722;2022-09-27T13:52:44;3.03;;;0.80;;
32172;SDS011;18679;45.190;5.722;2022-09-27T13:55:58;3.33;;;0.80;;
32172;SDS011;18679;45.190;5.722;2022-09-27T14:06:18;4.13;;;0.50;;
32172;SDS011;18679;45.190;5.722;2022-09-27T14:12:38;5.18;;;0.73;;
32172;SDS011;18679;45.190;5.722;2022-09-27T14:15:44;3.08;;;0.80;;
32172;SDS011;18679;45.190;5.722;2022-09-27T14:18:52;2.55;;;0.50;;
32172;SDS011;18679;45.190;5.722;2022-09-27T14:22:17;0.93;;;0.40;;
32172;SDS011;18679;45.190;5.722;2022-09-27T14:25:30;1.75;;;0.60;;
32172;SDS011;18679;45.190;5.722;2022-09-27T14:28:38;3.78;;;1.02;;
32172;SDS011;18679;45.190;5.722;2022-09-27T14:32:01;1.88;;;0.70;;
32172;SDS011;18679;45.190;5.722;2022-09-27T14:35:21;1.30;;;0.40;;
32172;SDS011;18679;45.190;5.722;2022-09-27T14:38:46;2.05;;;0.80;;
32172;SDS011;18679;45.190;5.722;2022-09-27T14:42:04;1.70;;;0.50;;
32172;SDS011;18679;45.190;5.722;2022-09-27T14:45:23;1.20;;;0.50;;
32172;SDS011;18679;45.190;5.722;2022-09-27T14:48:37;2.10;;;0.70;;
32172;SDS011;18679;45.190;5.722;2022-09-27T14:51:39;1.30;;;0.57;;
32172;SDS011;18679;45.190;5.722;2022-09-27T14:54:42;5.85;;;0.88;;
32172;SDS011;18679;45.190;5.722;2022-09-27T14:57:48;3.35;;;0.68;;
32172;SDS011;18679;45.190;5.722;2022-09-27T15:00:52;1.13;;;0.70;;
32172;SDS011;18679;45.190;5.722;2022-09-27T15:03:53;1.00;;;0.63;;
32172;SDS011;18679;45.190;5.722;2022-09-27T15:06:57;1.77;;;0.60;;
32172;SDS011;18679;45.190;5.722;2022-09-27T15:10:01;3.40;;;0.30;;
32172;SDS011;18679;45.190;5.722;2022-09-27T15:13:03;1.70;;;0.90;;
32172;SDS011;18679;45.190;5.722;2022-09-27T15:16:09;1.20;;;0.57;;
32172;SDS011;18679;45.190;5.722;2022-09-27T15:19:22;3.10;;;0.70;;
32172;SDS011;18679;45.190;5.722;2022-09-27T15:25:34;3.35;;;0.77;;
32172;SDS011;18679;45.190;5.722;2022-09-27T15:28:42;0.95;;;0.75;;
32172;SDS011;18679;45.190;5.722;2022-09-27T15:32:07;7.70;;;1.17;;
32172;SDS011;18679;45.190;5.722;2022-09-27T15:35:19;3.50;;;0.70;;
32172;SDS011;18679;45.190;5.722;2022-09-27T15:45:26;3.33;;;1.23;;
32172;SDS011;18679;45.190;5.722;2022-09-27T15:48:34;2.60;;;0.80;;
32172;SDS011;18679;45.190;5.722;2022-09-27T15:51:40;1.92;;;0.70;;
32172;SDS011;18679;45.190;5.722;2022-09-27T15:54:42;2.55;;;0.73;;
32172;SDS011;18679;45.190;5.722;2022-09-27T15:57:43;4.10;;;1.08;;
32172;SDS011;18679;45.190;5.722;2022-09-27T16:00:55;1.73;;;0.60;;
32172;SDS011;18679;45.190;5.722;2022-09-27T16:04:07;3.83;;;0.85;;
32172;SDS011;18679;45.190;5.722;2022-09-27T16:07:08;4.32;;;0.90;;
32172;SDS011;18679;45.190;5.722;2022-09-27T16:10:15;6.97;;;2.15;;
32172;SDS011;18679;45.190;5.722;2022-09-27T16:13:19;6.13;;;1.13;;
32172;SDS011;18679;45.190;5.722;2022-09-27T16:16:20;2.20;;;0.88;;
32172;SDS011;18679;45.190;5.722;2022-09-27T16:19:22;6.03;;;1.45;;
32172;SDS011;18679;45.190;5.722;2022-09-27T16:22:24;1.77;;;0.60;;
32172;SDS011;18679;45.190;5.722;2022-09-27T16:25:26;3.65;;;1.00;;
32172;SDS011;18679;45.190;5.722;2022-09-27T16:28:28;4.93;;;1.35;;
32172;SDS011;18679;45.190;5.722;2022-09-27T16:31:29;2.22;;;1.10;;
32172;SDS011;18679;45.190;5.722;2022-09-27T16:34:30;2.97;;;1.38;;
32172;SDS011;18679;45.190;5.722;2022-09-27T16:37:32;6.63;;;1.50;;
32172;SDS011;18679;45.190;5.722;2022-09-27T16:40:34;4.63;;;1.40;;
32172;SDS011;18679;45.190;5.722;2022-09-27T16:43:36;3.65;;;1.67;;
32172;SDS011;18679;45.190;5.722;2022-09-27T16:46:40;6.53;;;1.95;;
32172;SDS011;18679;45.190;5.722;2022-09-27T16:49:45;9.77;;;1.67;;
32172;SDS011;18679;45.190;5.722;2022-09-27T16:53:04;2.55;;;1.10;;
32172;SDS011;18679;45.190;5.722;2022-09-27T16:56:06;6.65;;;1.13;;
32172;SDS011;18679;45.190;5.722;2022-09-27T16:59:07;4.38;;;1.15;;
32172;SDS011;18679;45.190;5.722;2022-09-27T17:02:08;5.00;;;0.85;;
32172;SDS011;18679;45.190;5.722;2022-09-27T17:05:10;4.45;;;1.45;;
32172;SDS011;18679;45.190;5.722;2022-09-27T17:08:11;0.98;;;0.90;;
32172;SDS011;18679;45.190;5.722;2022-09-27T17:11:13;5.25;;;1.10;;
32172;SDS011;18679;45.190;5.722;2022-09-27T17:14:15;3.08;;;1.13;;
32172;SDS011;18679;45.190;5.722;2022-09-27T17:17:17;4.55;;;1.45;;
32172;SDS011;18679;45.190;5.722;2022-09-27T17:20:18;7.80;;;1.05;;
32172;SDS011;18679;45.190;5.722;2022-09-27T17:23:19;4.60;;;1.30;;
32172;SDS011;18679;45.190;5.722;2022-09-27T17:26:20;1.48;;;0.90;;
32172;SDS011;18679;45.190;5.722;2022-09-27T17:29:23;5.80;;;0.80;;
32172;SDS011;18679;45.190;5.722;2022-09-27T17:32:24;4.03;;;0.70;;
32172;SDS011;18679;45.190;5.722;2022-09-27T17:35:25;2.08;;;1.02;;
32172;SDS011;18679;45.190;5.722;2022-09-27T17:38:26;2.58;;;1.13;;
32172;SDS011;18679;45.190;5.722;2022-09-27T17:41:29;7.53;;;2.30;;
32172;SDS011;18679;45.190;5.722;2022-09-27T17:44:30;2.70;;;1.00;;
32172;SDS011;18679;45.190;5.722;2022-09-27T17:47:31;7.82;;;1.67;;
32172;SDS011;18679;45.190;5.722;2022-09-27T17:50:51;5.60;;;1.63;;
32172;SDS011;18679;45.190;5.722;2022-09-27T17:53:52;2.33;;;1.08;;
32172;SDS011;18679;45.190;5.722;2022-09-27T17:56:53;2.20;;;0.80;;
32172;SDS011;18679;45.190;5.722;2022-09-27T17:59:55;2.85;;;1.00;;
32172;SDS011;18679;45.190;5.722;2022-09-27T18:02:57;7.25;;;1.02;;
32172;SDS011;18679;45.190;5.722;2022-09-27T18:06:02;6.60;;;1.10;;
32172;SDS011;18679;45.190;5.722;2022-09-27T18:09:06;3.97;;;1.05;;
32172;SDS011;18679;45.190;5.722;2022-09-27T18:12:08;3.53;;;1.10;;
32172;SDS011;18679;45.190;5.722;2022-09-27T18:15:13;2.30;;;0.98;;
32172;SDS011;18679;45.190;5.722;2022-09-27T18:18:22;2.25;;;1.00;;
32172;SDS011;18679;45.190;5.722;2022-09-27T18:21:23;4.65;;;1.10;;
32172;SDS011;18679;45.190;5.722;2022-09-27T18:24:26;5.38;;;1.13;;
32172;SDS011;18679;45.190;5.722;2022-09-27T18:27:27;5.45;;;1.77;;
32172;SDS011;18679;45.190;5.722;2022-09-27T18:30:29;5.47;;;1.70;;
32172;SDS011;18679;45.190;5.722;2022-09-27T18:33:30;4.72;;;1.67;;
32172;SDS011;18679;45.190;5.722;2022-09-27T18:36:32;3.72;;;1.80;;
32172;SDS011;18679;45.190;5.722;2022-09-27T18:39:34;6.72;;;2.13;;
32172;SDS011;18679;45.190;5.722;2022-09-27T18:42:35;7.93;;;1.85;;
32172;SDS011;18679;45.190;5.722;2022-09-27T18:45:36;6.15;;;1.80;;
32172;SDS011;18679;45.190;5.722;2022-09-27T18:48:37;10.85;;;2.58;;
32172;SDS011;18679;45.190;5.722;2022-09-27T18:51:40;7.55;;;3.10;;
32172;SDS011;18679;45.190;5.722;2022-09-27T18:54:43;8.90;;;3.03;;
32172;SDS011;18679;45.190;5.722;2022-09-27T18:57:44;11.43;;;2.95;;
32172;SDS011;18679;45.190;5.722;2022-09-27T19:00:46;4.70;;;1.98;;
32172;SDS011;18679;45.190;5.722;2022-09-27T19:03:47;4.18;;;1.48;;
32172;SDS011;18679;45.190;5.722;2022-09-27T19:06:49;9.55;;;3.08;;
32172;SDS011;18679;45.190;5.722;2022-09-27T19:09:51;4.60;;;2.38;;
32172;SDS011;18679;45.190;5.722;2022-09-27T19:12:52;12.13;;;4.22;;
32172;SDS011;18679;45.190;5.722;2022-09-27T19:15:56;5.95;;;2.85;;
32172;SDS011;18679;45.190;5.722;2022-09-27T19:18:58;2.75;;;1.75;;
32172;SDS011;18679;45.190;5.722;2022-09-27T19:22:02;7.57;;;1.98;;
32172;SDS011;18679;45.190;5.722;2022-09-27T19:25:03;5.38;;;1.83;;
32172;SDS011;18679;45.190;5.722;2022-09-27T19:28:08;3.42;;;1.63;;
32172;SDS011;18679;45.190;5.722;2022-09-27T19:31:12;6.90;;;2.08;;
32172;SDS011;18679;45.190;5.722;2022-09-27T19:34:18;5.30;;;1.85;;
32172;SDS011;18679;45.190;5.722;2022-09-27T19:37:19;3.05;;;1.83;;
32172;SDS011;18679;45.190;5.722;2022-09-27T19:40:20;7.10;;;2.05;;
32172;SDS011;18679;45.190;5.722;2022-09-27T19:43:21;4.50;;;2.05;;
32172;SDS011;18679;45.190;5.722;2022-09-27T19:46:22;7.43;;;3.05;;
32172;SDS011;18679;45.190;5.722;2022-09-27T19:49:24;9.88;;;2.72;;
32172;SDS011;18679;45.190;5.722;2022-09-27T19:52:26;3.33;;;1.50;;
32172;SDS011;18679;45.190;5.722;2022-09-27T19:55:26;3.75;;;1.98;;
32172;SDS011;18679;45.190;5.722;2022-09-27T19:58:28;7.10;;;2.03;;
32172;SDS011;18679;45.190;5.722;2022-09-27T20:01:30;7.10;;;2.97;;
32172;SDS011;18679;45.190;5.722;2022-09-27T20:04:31;3.85;;;1.50;;
32172;SDS011;18679;45.190;5.722;2022-09-27T20:07:32;4.05;;;1.60;;
32172;SDS011;18679;45.190;5.722;2022-09-27T20:10:34;8.63;;;2.28;;
32172;SDS011;18679;45.190;5.722;2022-09-27T20:13:35;6.35;;;2.08;;
32172;SDS011;18679;45.190;5.722;2022-09-27T20:16:37;8.68;;;2.30;;
32172;SDS011;18679;45.190;5.722;2022-09-27T20:19:38;3.65;;;1.92;;
32172;SDS011;18679;45.190;5.722;2022-09-27T20:22:39;11.05;;;3.42;;
32172;SDS011;18679;45.190;5.722;2022-09-27T20:25:41;2.47;;;1.75;;
32172;SDS011;18679;45.190;5.722;2022-09-27T20:28:42;6.15;;;2.40;;
32172;SDS011;18679;45.190;5.722;2022-09-27T20:31:47;6.28;;;1.70;;
32172;SDS011;18679;45.190;5.722;2022-09-27T20:34:48;4.55;;;2.22;;
32172;SDS011;18679;45.190;5.722;2022-09-27T20:37:51;9.70;;;1.92;;
32172;SDS011;18679;45.190;5.722;2022-09-27T20:40:52;3.47;;;1.85;;
32172;SDS011;18679;45.190;5.722;2022-09-27T20:43:54;6.85;;;1.90;;
32172;SDS011;18679;45.190;5.722;2022-09-27T20:46:57;7.50;;;2.05;;
32172;SDS011;18679;45.190;5.722;2022-09-27T20:49:58;9.15;;;2.42;;
32172;SDS011;18679;45.190;5.722;2022-09-27T20:53:02;8.85;;;2.10;;
32172;SDS011;18679;45.190;5.722;2022-09-27T20:56:03;5.75;;;2.13;;
32172;SDS011;18679;45.190;5.722;2022-09-27T20:59:05;3.10;;;1.85;;
32172;SDS011;18679;45.190;5.722;2022-09-27T21:02:12;7.33;;;1.93;;
32172;SDS011;18679;45.190;5.722;2022-09-27T21:05:13;7.20;;;2.42;;
32172;SDS011;18679;45.190;5.722;2022-09-27T21:08:14;12.02;;;2.65;;
32172;SDS011;18679;45.190;5.722;2022-09-27T21:11:15;6.10;;;2.25;;
32172;SDS011;18679;45.190;5.722;2022-09-27T21:14:18;8.27;;;2.38;;
32172;SDS011;18679;45.190;5.722;2022-09-27T21:17:19;6.32;;;2.10;;
32172;SDS011;18679;45.190;5.722;2022-09-27T21:20:20;6.15;;;2.05;;
32172;SDS011;18679;45.190;5.722;2022-09-27T21:23:21;6.05;;;1.88;;
32172;SDS011;18679;45.190;5.722;2022-09-27T21:26:23;2.75;;;1.60;;
32172;SDS011;18679;45.190;5.722;2022-09-27T21:29:25;5.40;;;1.98;;
32172;SDS011;18679;45.190;5.722;2022-09-27T21:32:26;3.10;;;1.83;;
32172;SDS011;18679;45.190;5.722;2022-09-27T21:35:28;6.80;;;2.40;;
32172;SDS011;18679;45.190;5.722;2022-09-27T21:38:29;2.83;;;1.55;;